createdAt,value
2023-02-22T00:01:51.247Z,7.79
2023-02-22T00:04:21.198Z,7.86
2023-02-22T00:06:49.403Z,7.87
2023-02-22T00:09:20.586Z,7.83
2023-02-22T00:11:48.807Z,7.79
2023-02-22T00:14:15.894Z,7.93
2023-02-22T00:16:42.486Z,7.84
2023-02-22T00:19:10.586Z,7.84
2023-02-22T00:21:37.428Z,7.82
2023-02-22T00:24:23.104Z,7.90
2023-02-22T00:26:55.667Z,7.88
2023-02-22T00:29:23.426Z,7.81
2023-02-22T00:31:50.234Z,7.82
2023-02-22T00:34:16.805Z,7.76
2023-02-22T00:36:48.305Z,7.78
2023-02-22T00:39:14.945Z,7.94
2023-02-22T00:41:41.514Z,8.09
2023-02-22T00:44:08.082Z,8.09
2023-02-22T00:46:37.762Z,8.02
2023-02-22T00:49:07.144Z,7.88
2023-02-22T00:51:35.633Z,7.70
2023-02-22T00:54:02.209Z,7.62
2023-02-22T00:56:28.754Z,7.60
2023-02-22T00:58:55.329Z,7.39
2023-02-22T01:01:22.345Z,7.41
2023-02-22T01:03:48.943Z,7.29
2023-02-22T01:06:15.666Z,7.06
2023-02-22T01:08:45.242Z,7.07
2023-02-22T01:11:12.692Z,6.95
2023-02-22T01:13:39.287Z,6.97
2023-02-22T01:16:08.706Z,6.98
2023-02-22T01:18:38.116Z,7.00
2023-02-22T01:21:06.066Z,6.99
2023-02-22T01:23:32.553Z,6.94
2023-02-22T01:25:59.087Z,6.99
2023-02-22T01:28:25.647Z,6.94
2023-02-22T01:30:52.307Z,7.08
2023-02-22T01:33:18.913Z,7.15
2023-02-22T01:35:46.367Z,7.27
2023-02-22T01:38:14.199Z,7.45
2023-02-22T01:40:43.562Z,7.40
2023-02-22T01:43:30.734Z,7.20
2023-02-22T01:45:57.403Z,7.25
2023-02-22T01:48:47.785Z,7.29
2023-02-22T01:51:20.371Z,7.44
2023-02-22T01:53:55.409Z,7.54
2023-02-22T01:56:24.918Z,7.69
2023-02-22T01:58:59.370Z,7.87
2023-02-22T02:01:29.565Z,7.80
2023-02-22T02:04:01.167Z,7.90
2023-02-22T02:06:33.783Z,7.88
2023-02-22T02:09:30.234Z,7.95
2023-02-22T02:12:05.067Z,7.82
2023-02-22T02:14:32.350Z,7.84
2023-02-22T02:17:03.594Z,7.86
2023-02-22T02:20:00.684Z,7.81
2023-02-22T02:22:45.955Z,7.84
2023-02-22T02:25:30.970Z,7.46
2023-02-22T02:28:25.988Z,7.60
2023-02-22T02:31:31.466Z,7.70
2023-02-22T02:34:24.252Z,7.51
2023-02-22T02:37:35.556Z,7.37
2023-02-22T02:40:24.067Z,7.43
2023-02-22T02:42:59.144Z,7.56
2023-02-22T02:45:32.946Z,7.56
2023-02-22T02:48:03.632Z,7.73
2023-02-22T02:50:37.752Z,7.82
2023-02-22T02:53:11.056Z,7.89
2023-02-22T02:55:38.286Z,8.01
2023-02-22T02:58:07.635Z,8.15
2023-02-22T03:00:41.679Z,8.15
2023-02-22T03:03:25.371Z,8.18
2023-02-22T03:06:12.300Z,8.26
2023-02-22T03:08:52.790Z,8.26
2023-02-22T03:11:24.147Z,8.25
2023-02-22T03:14:14.586Z,8.30
2023-02-22T03:16:55.809Z,8.38
2023-02-22T03:19:50.532Z,8.19
2023-02-22T03:22:26.385Z,8.13
2023-02-22T03:25:14.465Z,8.12
2023-02-22T03:27:46.482Z,8.17
2023-02-22T03:30:39.579Z,8.17
2023-02-22T03:33:15.641Z,8.14
2023-02-22T03:35:50.937Z,8.22
2023-02-22T03:38:21.005Z,8.20
2023-02-22T03:40:52.239Z,8.25
2023-02-22T03:43:25.000Z,8.22
2023-02-22T03:45:51.946Z,8.22
2023-02-22T03:48:38.544Z,8.19
2023-02-22T03:51:06.280Z,8.22
2023-02-22T03:53:37.087Z,8.26
2023-02-22T03:56:08.572Z,8.37
2023-02-22T03:58:37.752Z,8.26
2023-02-22T04:01:04.464Z,8.33
2023-02-22T04:03:30.979Z,8.28
2023-02-22T04:05:58.007Z,8.35
2023-02-22T04:08:24.502Z,8.42
2023-02-22T04:10:51.390Z,8.41
2023-02-22T04:13:17.909Z,8.50
2023-02-22T04:15:47.571Z,8.57
2023-02-22T04:18:18.458Z,8.58
2023-02-22T04:20:48.511Z,8.70
2023-02-22T04:23:17.050Z,8.69
2023-02-22T04:25:47.572Z,8.72
2023-02-22T04:28:18.159Z,8.78
2023-02-22T04:30:48.687Z,8.83
2023-02-22T04:33:19.427Z,8.80
2023-02-22T04:35:49.534Z,8.88
2023-02-22T04:38:17.821Z,8.83
2023-02-22T04:40:47.470Z,8.84
2023-02-22T04:43:13.988Z,8.86
2023-02-22T04:45:40.528Z,8.94
2023-02-22T04:48:07.057Z,9.11
2023-02-22T04:50:33.560Z,9.13
2023-02-22T04:53:00.030Z,9.09
2023-02-22T04:55:28.126Z,9.03
2023-02-22T04:57:55.964Z,9.08
2023-02-22T05:00:22.681Z,9.06
2023-02-22T05:02:50.323Z,9.08
2023-02-22T05:05:21.447Z,9.19
2023-02-22T05:07:51.012Z,9.12
2023-02-22T05:10:21.003Z,9.07
2023-02-22T05:12:51.838Z,9.01
2023-02-22T05:15:22.134Z,8.95
2023-02-22T05:17:49.719Z,8.87
2023-02-22T05:20:29.895Z,8.88
2023-02-22T05:22:58.304Z,8.79
2023-02-22T05:25:25.691Z,8.73
2023-02-22T05:27:54.285Z,8.73
2023-02-22T05:30:25.366Z,8.81
2023-02-22T05:32:52.512Z,8.80
2023-02-22T05:35:23.258Z,8.75
2023-02-22T05:37:50.855Z,8.73
2023-02-22T05:40:19.454Z,8.77
2023-02-22T05:42:49.102Z,8.85
2023-02-22T05:45:20.982Z,8.92
2023-02-22T05:47:49.565Z,9.14
2023-02-22T05:50:19.840Z,9.24
2023-02-22T05:52:49.535Z,9.08
2023-02-22T05:55:21.733Z,8.83
2023-02-22T05:57:52.672Z,8.60
2023-02-22T06:00:27.888Z,8.49
2023-02-22T06:03:03.096Z,8.34
2023-02-22T06:05:29.973Z,8.19
2023-02-22T06:07:57.773Z,8.28
2023-02-22T06:10:25.129Z,8.41
2023-02-22T06:12:52.201Z,8.62
2023-02-22T06:15:23.251Z,8.43
2023-02-22T06:17:49.861Z,8.22
2023-02-22T06:20:19.993Z,8.02
2023-02-22T06:22:54.704Z,8.03
2023-02-22T06:25:26.579Z,7.93
2023-02-22T06:27:53.367Z,8.09
2023-02-22T06:30:24.962Z,7.84
2023-02-22T06:32:51.667Z,7.88
2023-02-22T06:35:21.975Z,7.81
2023-02-22T06:37:51.163Z,7.84
2023-02-22T06:40:21.399Z,7.70
2023-02-22T06:42:50.941Z,7.86
2023-02-22T06:45:21.544Z,7.81
2023-02-22T06:47:51.224Z,7.97
2023-02-22T06:50:26.621Z,8.03
2023-02-22T06:52:53.162Z,8.08
2023-02-22T06:55:21.780Z,8.18
2023-02-22T06:57:51.753Z,8.21
2023-02-22T07:00:25.084Z,8.29
2023-02-22T07:02:52.367Z,8.40
2023-02-22T07:05:23.994Z,8.43
2023-02-22T07:07:52.798Z,8.34
2023-02-22T07:10:28.612Z,8.15
2023-02-22T07:12:55.826Z,7.99
2023-02-22T07:15:24.558Z,8.01
2023-02-22T07:17:52.492Z,7.94
2023-02-22T07:20:24.761Z,8.07
2023-02-22T07:22:52.375Z,8.20
2023-02-22T07:25:23.446Z,8.31
2023-02-22T07:27:53.670Z,8.35
2023-02-22T07:30:28.217Z,8.40
2023-02-22T07:32:55.793Z,8.30
2023-02-22T07:35:28.658Z,8.17
2023-02-22T07:37:56.338Z,8.12
2023-02-22T07:40:23.743Z,8.13
2023-02-22T07:43:04.320Z,8.19
2023-02-22T07:45:33.910Z,8.29
2023-02-22T07:48:01.935Z,8.38
2023-02-22T07:50:32.828Z,8.37
2023-02-22T07:53:02.349Z,8.59
2023-02-22T07:55:31.008Z,8.79
2023-02-22T07:58:04.619Z,9.07
2023-02-22T08:00:34.429Z,9.01
2023-02-22T08:03:02.929Z,9.11
2023-02-22T08:05:31.363Z,9.25
2023-02-22T08:07:58.211Z,9.30
2023-02-22T08:10:26.436Z,9.44
2023-02-22T08:12:54.343Z,9.45
2023-02-22T08:15:24.247Z,9.56
2023-02-22T08:17:53.684Z,9.63
2023-02-22T08:20:23.301Z,9.77
2023-02-22T08:22:51.579Z,9.80
2023-02-22T08:25:20.852Z,9.84
2023-02-22T08:27:50.763Z,9.83
2023-02-22T08:30:22.429Z,9.92
2023-02-22T08:32:51.287Z,9.93
2023-02-22T08:35:20.594Z,10.00
2023-02-22T08:37:53.074Z,10.15
2023-02-22T08:40:24.489Z,10.27
2023-02-22T08:42:51.549Z,10.26
2023-02-22T08:45:21.118Z,10.29
2023-02-22T08:47:49.591Z,10.37
2023-02-22T08:50:24.096Z,10.47
2023-02-22T08:52:58.651Z,10.46
2023-02-22T08:55:27.747Z,10.43
2023-02-22T08:57:54.300Z,10.42
2023-02-22T09:00:24.776Z,10.53
2023-02-22T09:02:52.432Z,10.69
2023-02-22T09:05:21.012Z,10.79
2023-02-22T09:07:50.059Z,10.70
2023-02-22T09:10:20.420Z,10.78
2023-02-22T09:12:47.031Z,10.86
2023-02-22T09:15:13.581Z,10.96
2023-02-22T09:17:40.074Z,11.12
2023-02-22T09:20:08.151Z,11.11
2023-02-22T09:22:34.714Z,11.10
2023-02-22T09:25:11.353Z,11.20
2023-02-22T09:27:43.665Z,11.37
2023-02-22T09:30:36.794Z,11.60
2023-02-22T09:33:12.402Z,11.60
2023-02-22T09:35:42.564Z,11.58
2023-02-22T09:38:11.127Z,11.64
2023-02-22T09:40:45.092Z,11.65
2023-02-22T09:43:14.803Z,11.74
2023-02-22T09:45:56.586Z,11.85
2023-02-22T09:48:25.372Z,11.85
2023-02-22T09:50:58.482Z,12.09
2023-02-22T09:53:45.059Z,12.12
2023-02-22T09:56:14.640Z,12.23
2023-02-22T09:58:45.811Z,12.31
2023-02-22T10:01:28.096Z,12.23
2023-02-22T10:04:24.988Z,12.21
2023-02-22T10:07:09.968Z,12.20
2023-02-22T10:09:42.735Z,12.15
2023-02-22T10:12:12.722Z,12.15
2023-02-22T10:15:02.752Z,12.08
2023-02-22T10:17:54.061Z,12.14
2023-02-22T10:20:50.692Z,12.14
2023-02-22T10:23:28.582Z,12.10
2023-02-22T10:26:26.883Z,12.11
2023-02-22T10:29:11.949Z,12.16
2023-02-22T10:31:45.780Z,12.36
2023-02-22T10:34:25.705Z,12.48
2023-02-22T10:37:03.162Z,12.62
2023-02-22T10:39:36.533Z,12.58
2023-02-22T10:42:08.105Z,12.53
2023-02-22T10:44:39.754Z,12.55
2023-02-22T10:47:10.081Z,12.28
2023-02-22T10:49:41.986Z,12.14
2023-02-22T10:52:24.560Z,11.99
2023-02-22T10:54:52.077Z,12.10
2023-02-22T10:57:25.645Z,12.04
2023-02-22T10:59:52.505Z,11.97
2023-02-22T11:02:27.828Z,12.10
2023-02-22T11:04:57.776Z,12.08
2023-02-22T11:07:24.644Z,12.15
2023-02-22T11:09:57.820Z,12.04
2023-02-22T11:12:39.912Z,12.00
2023-02-22T11:15:21.083Z,12.07
2023-02-22T11:18:01.467Z,11.96
2023-02-22T11:20:35.081Z,11.84
2023-02-22T11:23:05.112Z,11.97
2023-02-22T11:25:42.293Z,11.88
2023-02-22T11:28:31.075Z,11.85
2023-02-22T11:31:22.332Z,11.66
2023-02-22T11:33:59.517Z,11.67
2023-02-22T11:36:30.799Z,11.71
2023-02-22T11:39:00.769Z,11.56
2023-02-22T11:41:29.900Z,11.68
2023-02-22T11:44:21.526Z,11.73
2023-02-22T11:46:50.678Z,12.01
2023-02-22T11:49:21.710Z,12.25
2023-02-22T11:52:20.626Z,12.42
2023-02-22T11:55:01.845Z,12.45
2023-02-22T11:57:46.552Z,12.53
2023-02-22T12:00:29.035Z,12.54
2023-02-22T12:03:20.850Z,12.57
2023-02-22T12:06:02.379Z,12.54
2023-02-22T12:08:54.132Z,12.23
2023-02-22T12:11:33.120Z,12.15
2023-02-22T12:14:14.824Z,12.12
2023-02-22T12:16:59.633Z,12.11
2023-02-22T12:19:38.095Z,11.98
2023-02-22T12:22:13.154Z,11.90
2023-02-22T12:24:57.945Z,11.93
2023-02-22T12:27:50.253Z,11.85
2023-02-22T12:30:38.658Z,11.89
2023-02-22T12:33:13.793Z,11.94
2023-02-22T12:35:50.820Z,12.04
2023-02-22T12:38:27.700Z,12.23
2023-02-22T12:40:54.480Z,12.28
2023-02-22T12:43:29.273Z,12.28
2023-02-22T12:46:14.295Z,12.34
2023-02-22T12:48:51.682Z,12.32
2023-02-22T12:51:22.204Z,12.35
2023-02-22T12:54:25.788Z,12.49
2023-02-22T12:57:10.087Z,12.46
2023-02-22T12:59:39.003Z,12.43
2023-02-22T13:02:21.736Z,12.43
2023-02-22T13:04:50.730Z,12.40
2023-02-22T13:07:23.047Z,12.46
2023-02-22T13:09:58.900Z,12.47
2023-02-22T13:12:57.588Z,12.53
2023-02-22T13:15:46.250Z,12.69
2023-02-22T13:18:27.907Z,12.65
2023-02-22T13:21:17.888Z,12.68
2023-02-22T13:23:55.978Z,12.67
2023-02-22T13:26:31.489Z,12.71
2023-02-22T13:29:13.854Z,12.64
2023-02-22T13:32:10.753Z,12.48
2023-02-22T13:34:37.179Z,12.29
2023-02-22T13:37:12.795Z,12.25
2023-02-22T13:40:03.248Z,12.26
2023-02-22T13:42:29.691Z,12.22
2023-02-22T13:45:27.328Z,12.22
2023-02-22T13:48:04.057Z,12.25
2023-02-22T13:51:00.750Z,12.23
2023-02-22T13:53:34.987Z,12.33
2023-02-22T13:56:02.232Z,12.38
2023-02-22T13:58:28.913Z,12.32
2023-02-22T14:00:58.058Z,12.31
2023-02-22T14:03:41.128Z,12.32
2023-02-22T14:06:11.465Z,12.42
2023-02-22T14:08:41.300Z,12.50
2023-02-22T14:11:14.418Z,12.65
2023-02-22T14:13:57.987Z,12.68
2023-02-22T14:16:27.308Z,12.79
2023-02-22T14:19:13.489Z,12.76
2023-02-22T14:21:57.552Z,12.64
2023-02-22T14:24:27.486Z,12.77
2023-02-22T14:27:04.843Z,12.98
2023-02-22T14:29:31.700Z,13.13
2023-02-22T14:32:03.044Z,13.40
2023-02-22T14:35:25.436Z,13.56
2023-02-22T14:37:57.084Z,13.46
2023-02-22T14:40:30.353Z,13.42
2023-02-22T14:43:19.909Z,13.34
2023-02-22T14:46:01.347Z,13.14
2023-02-22T14:48:42.776Z,12.92
2023-02-22T14:51:21.865Z,12.90
2023-02-22T14:54:06.430Z,12.89
2023-02-22T14:56:41.435Z,12.92
2023-02-22T14:59:21.221Z,12.89
2023-02-22T15:02:01.679Z,12.74
2023-02-22T15:04:34.933Z,12.71
2023-02-22T15:07:09.569Z,12.53
2023-02-22T15:09:37.607Z,12.60
2023-02-22T15:12:04.318Z,12.55
2023-02-22T15:14:39.179Z,12.39
2023-02-22T15:17:17.220Z,12.36
2023-02-22T15:19:43.979Z,12.37
2023-02-22T15:22:19.566Z,12.42
2023-02-22T15:24:56.705Z,12.32
2023-02-22T15:27:25.984Z,12.31
2023-02-22T15:29:59.702Z,12.36
2023-02-22T15:32:30.645Z,12.40
2023-02-22T15:35:28.421Z,12.44
2023-02-22T15:38:20.124Z,12.51
2023-02-22T15:40:50.624Z,12.51
2023-02-22T15:43:32.748Z,12.55
2023-02-22T15:46:00.899Z,12.60
2023-02-22T15:48:31.160Z,12.72
2023-02-22T15:51:04.340Z,12.71
2023-02-22T15:53:42.684Z,12.76
2023-02-22T15:56:16.354Z,12.79
2023-02-22T15:58:45.691Z,12.82
2023-02-22T16:01:17.293Z,12.83
2023-02-22T16:03:51.507Z,12.74
2023-02-22T16:06:36.039Z,12.65
2023-02-22T16:09:32.474Z,12.60
2023-02-22T16:12:24.189Z,12.53
2023-02-22T16:14:52.402Z,12.45
2023-02-22T16:17:27.927Z,12.42
2023-02-22T16:19:54.751Z,12.34
2023-02-22T16:22:36.697Z,12.33
2023-02-22T16:25:21.516Z,12.27
2023-02-22T16:27:59.378Z,12.38
2023-02-22T16:30:29.506Z,12.38
2023-02-22T16:32:58.425Z,12.38
2023-02-22T16:35:28.789Z,12.36
2023-02-22T16:38:02.222Z,12.27
2023-02-22T16:40:39.005Z,12.28
2023-02-22T16:43:14.222Z,12.24
2023-02-22T16:45:42.500Z,12.19
2023-02-22T16:48:18.653Z,12.07
2023-02-22T16:50:46.623Z,12.11
2023-02-22T16:53:13.646Z,12.07
2023-02-22T16:55:44.751Z,12.01
2023-02-22T16:58:13.777Z,11.91
2023-02-22T17:00:42.304Z,11.82
2023-02-22T17:03:15.018Z,11.81
2023-02-22T17:05:41.894Z,11.74
2023-02-22T17:08:08.506Z,11.61
2023-02-22T17:10:35.086Z,11.62
2023-02-22T17:13:16.134Z,11.70
2023-02-22T17:15:46.847Z,11.62
2023-02-22T17:18:16.319Z,11.67
2023-02-22T17:20:45.020Z,11.66
2023-02-22T17:23:12.390Z,11.61
2023-02-22T17:25:50.643Z,11.58
2023-02-22T17:28:17.254Z,11.54
2023-02-22T17:30:45.319Z,11.49
2023-02-22T17:33:16.331Z,11.42
2023-02-22T17:35:43.949Z,11.39
2023-02-22T17:38:10.517Z,11.34
2023-02-22T17:40:38.936Z,11.41
2023-02-22T17:43:08.773Z,11.38
2023-02-22T17:45:38.095Z,11.19
2023-02-22T17:48:05.533Z,11.32
2023-02-22T17:50:32.109Z,11.17
2023-02-22T17:53:03.234Z,11.40
2023-02-22T17:55:30.144Z,11.41
2023-02-22T17:57:59.341Z,11.23
2023-02-22T18:00:34.191Z,11.25
2023-02-22T18:03:10.854Z,11.19
2023-02-22T18:05:47.052Z,11.27
2023-02-22T18:08:15.826Z,11.23
2023-02-22T18:10:43.699Z,11.23
2023-02-22T18:13:14.134Z,11.26
2023-02-22T18:15:40.707Z,11.10
2023-02-22T18:18:07.461Z,11.17
2023-02-22T18:20:39.879Z,11.11
2023-02-22T18:23:08.433Z,11.10
2023-02-22T18:25:36.543Z,11.08
2023-02-22T18:28:07.842Z,11.05
2023-02-22T18:30:36.749Z,11.07
2023-02-22T18:33:04.241Z,11.02
2023-02-22T18:35:31.584Z,10.89
2023-02-22T18:38:01.390Z,10.96
2023-02-22T18:40:30.774Z,10.94
2023-02-22T18:43:00.550Z,10.98
2023-02-22T18:45:30.728Z,10.94
2023-02-22T18:48:00.889Z,10.83
2023-02-22T18:50:30.546Z,10.98
2023-02-22T18:52:59.921Z,10.95
2023-02-22T18:55:27.686Z,11.03
2023-02-22T18:57:57.730Z,11.07
2023-02-22T19:00:29.961Z,10.95
2023-02-22T19:02:58.635Z,10.99
2023-02-22T19:05:25.143Z,11.06
2023-02-22T19:07:51.686Z,11.00
2023-02-22T19:10:18.281Z,11.01
2023-02-22T19:12:44.838Z,11.02
2023-02-22T19:15:12.148Z,11.07
2023-02-22T19:17:40.617Z,11.06
2023-02-22T19:20:10.770Z,11.03
2023-02-22T19:25:05.707Z,10.94
2023-02-22T19:27:52.528Z,10.92
2023-02-22T19:30:19.098Z,10.95
2023-02-22T19:32:47.442Z,10.89
2023-02-22T19:35:28.616Z,10.80
2023-02-22T19:37:56.107Z,10.86
2023-02-22T19:40:23.290Z,10.79
2023-02-22T19:42:51.592Z,10.83
2023-02-22T19:45:22.360Z,10.89
2023-02-22T19:47:54.052Z,10.86
2023-02-22T19:50:21.679Z,10.51
2023-02-22T19:53:04.667Z,10.66
2023-02-22T19:55:32.350Z,10.69
2023-02-22T19:58:03.329Z,10.63
2023-02-22T20:00:35.780Z,10.64
2023-02-22T20:03:06.433Z,10.71
2023-02-22T20:05:37.313Z,10.64
2023-02-22T20:08:04.182Z,10.64
2023-02-22T20:10:34.999Z,10.55
2023-02-22T20:13:02.176Z,10.60
2023-02-22T20:15:33.260Z,10.55
2023-02-22T20:18:02.724Z,10.37
2023-02-22T20:20:33.495Z,10.39
2023-02-22T20:23:01.511Z,10.33
2023-02-22T20:25:28.044Z,10.40
2023-02-22T20:27:56.525Z,10.57
2023-02-22T20:30:25.070Z,10.52
2023-02-22T20:32:51.779Z,10.53
2023-02-22T20:35:18.435Z,10.45
2023-02-22T20:37:44.973Z,10.61
2023-02-22T20:40:11.592Z,10.61
2023-02-22T20:42:40.526Z,10.62
2023-02-22T20:45:08.851Z,10.45
2023-02-22T20:47:36.424Z,10.53
2023-02-22T20:50:03.362Z,10.63
2023-02-22T20:52:33.366Z,10.45
2023-02-22T20:55:04.246Z,10.29
2023-02-22T20:57:33.836Z,10.33
2023-02-22T21:00:04.840Z,10.28
2023-02-22T21:02:36.829Z,10.25
2023-02-22T21:05:03.469Z,10.16
2023-02-22T21:07:33.705Z,10.30
2023-02-22T21:10:06.063Z,10.27
2023-02-22T21:12:34.887Z,10.46
2023-02-22T21:15:01.948Z,10.48
2023-02-22T21:17:31.534Z,10.46
2023-02-22T21:20:01.179Z,10.60
2023-02-22T21:22:27.690Z,10.63
2023-02-22T21:24:54.227Z,10.56
2023-02-22T21:27:20.735Z,10.42
2023-02-22T21:29:47.305Z,10.37
2023-02-22T21:32:14.120Z,10.45
2023-02-22T21:34:40.938Z,10.44
2023-02-22T21:37:08.365Z,10.41
2023-02-22T21:39:35.467Z,10.40
2023-02-22T21:42:07.169Z,10.31
2023-02-22T21:44:33.726Z,10.32
2023-02-22T21:47:02.090Z,10.33
2023-02-22T21:49:29.048Z,10.27
2023-02-22T21:51:57.591Z,10.38
2023-02-22T21:54:24.230Z,10.36
2023-02-22T21:56:50.834Z,10.37
2023-02-22T21:59:20.266Z,10.40
2023-02-22T22:01:55.457Z,10.30
2023-02-22T22:04:29.839Z,10.35
2023-02-22T22:06:59.351Z,10.31
2023-02-22T22:09:29.049Z,10.35
2023-02-22T22:11:58.392Z,10.26
2023-02-22T22:14:26.121Z,10.26
2023-02-22T22:17:00.232Z,10.27
2023-02-22T22:19:29.319Z,10.43
2023-02-22T22:21:56.838Z,10.33
2023-02-22T22:24:24.183Z,10.20
2023-02-22T22:26:54.811Z,10.24
2023-02-22T22:29:28.548Z,10.27
2023-02-22T22:31:55.527Z,10.20
2023-02-22T22:34:25.190Z,10.13
2023-02-22T22:36:51.677Z,9.97
2023-02-22T22:39:20.936Z,9.99
2023-02-22T22:41:48.345Z,10.09
2023-02-22T22:44:16.139Z,10.09
2023-02-22T22:46:43.581Z,10.18
2023-02-22T22:49:13.289Z,10.11
2023-02-22T22:51:41.125Z,10.23
2023-02-22T22:54:12.090Z,10.17
2023-02-22T22:56:38.725Z,10.13
2023-02-22T22:59:09.709Z,10.15
2023-02-22T23:01:40.612Z,10.11
2023-02-22T23:04:11.739Z,10.17
2023-02-22T23:06:41.071Z,10.17
2023-02-22T23:09:11.620Z,10.27
2023-02-22T23:11:44.593Z,10.28
2023-02-22T23:14:14.077Z,10.30
2023-02-22T23:16:42.407Z,10.29
2023-02-22T23:19:09.314Z,10.25
2023-02-22T23:21:39.175Z,10.25
2023-02-22T23:24:09.145Z,10.25
2023-02-22T23:26:38.501Z,10.15
2023-02-22T23:29:07.740Z,10.08
2023-02-22T23:31:39.597Z,10.02
2023-02-22T23:34:11.216Z,9.98
2023-02-22T23:36:44.602Z,9.96
2023-02-22T23:39:12.297Z,9.94
2023-02-22T23:41:38.788Z,9.89
2023-02-22T23:44:08.445Z,9.85
2023-02-22T23:46:39.279Z,9.80
2023-02-22T23:49:09.037Z,9.73
2023-02-22T23:51:39.681Z,9.67
2023-02-22T23:54:12.560Z,9.73
2023-02-22T23:56:47.291Z,9.66
2023-02-22T23:59:14.448Z,9.54
